Terminal Aerodrome Forecast
Issued by NWS

Home | Current Version | Previous Version | Graphics & Text | Print | Product List | Glossary On
Versions: 1 2 3 4 5 6 7 8 9 10 11 12 13 14 15 16 17 18 19 20
560
FTUS43 KMPX 211737
TAFRWF
TAF
KRWF 211737Z 2118/2218 08005KT 1SM BR OVC002
     FM212200 VRB03KT 1/2SM FG OVC002
     FM220200 VRB02KT 1/4SM FG VV002
     FM221500 31006KT 2SM BR OVC004=

USA.gov is the U.S. government's official web portal to all federal, state and local government web resources and services.